sensor_id;sensor_type;location;lat;lon;timestamp;temperature;humidity
39503;DHT22;26970;49.900;10.774;2024-02-26T00:00:15;3.40;99.90
39503;DHT22;26970;49.900;10.774;2024-02-26T00:02:41;3.40;99.90
39503;DHT22;26970;49.900;10.774;2024-02-26T00:05:07;3.40;99.90
39503;DHT22;26970;49.900;10.774;2024-02-26T00:07:33;3.50;99.90
39503;DHT22;26970;49.900;10.774;2024-02-26T00:09:59;3.40;99.90
39503;DHT22;26970;49.900;10.774;2024-02-26T00:12:24;3.40;99.90
39503;DHT22;26970;49.900;10.774;2024-02-26T00:14:50;3.40;99.90
39503;DHT22;26970;49.900;10.774;2024-02-26T00:17:18;3.40;99.90
39503;DHT22;26970;49.900;10.774;2024-02-26T00:19:43;3.40;99.90
39503;DHT22;26970;49.900;10.774;2024-02-26T00:22:09;3.40;99.90
39503;DHT22;26970;49.900;10.774;2024-02-26T00:24:34;3.50;99.90
39503;DHT22;26970;49.900;10.774;2024-02-26T00:27:00;3.40;99.90
39503;DHT22;26970;49.900;10.774;2024-02-26T00:29:25;3.30;99.90
39503;DHT22;26970;49.900;10.774;2024-02-26T00:31:51;3.30;99.90
39503;DHT22;26970;49.900;10.774;2024-02-26T00:34:16;3.30;99.90
39503;DHT22;26970;49.900;10.774;2024-02-26T00:36:42;3.20;99.90
39503;DHT22;26970;49.900;10.774;2024-02-26T00:39:08;3.30;99.90
39503;DHT22;26970;49.900;10.774;2024-02-26T00:41:38;3.20;99.90
39503;DHT22;26970;49.900;10.774;2024-02-26T00:44:04;3.30;99.90
39503;DHT22;26970;49.900;10.774;2024-02-26T00:46:29;3.20;99.90
39503;DHT22;26970;49.900;10.774;2024-02-26T00:48:55;3.10;99.90
39503;DHT22;26970;49.900;10.774;2024-02-26T00:51:20;3.10;99.90
39503;DHT22;26970;49.900;10.774;2024-02-26T00:53:46;3.10;99.90
39503;DHT22;26970;49.900;10.774;2024-02-26T00:56:11;3.00;99.90
39503;DHT22;26970;49.900;10.774;2024-02-26T00:58:37;3.00;99.90
39503;DHT22;26970;49.900;10.774;2024-02-26T01:01:02;2.90;99.90
39503;DHT22;26970;49.900;10.774;2024-02-26T01:03:28;2.90;99.90
39503;DHT22;26970;49.900;10.774;2024-02-26T01:05:54;2.90;99.90
39503;DHT22;26970;49.900;10.774;2024-02-26T01:08:19;2.90;99.90
39503;DHT22;26970;49.900;10.774;2024-02-26T01:10:45;2.90;99.90
39503;DHT22;26970;49.900;10.774;2024-02-26T01:13:11;2.90;99.90
39503;DHT22;26970;49.900;10.774;2024-02-26T01:15:37;2.90;99.90
39503;DHT22;26970;49.900;10.774;2024-02-26T01:18:02;2.90;99.90
39503;DHT22;26970;49.900;10.774;2024-02-26T01:20:28;2.90;99.90
39503;DHT22;26970;49.900;10.774;2024-02-26T01:22:53;2.90;99.90
39503;DHT22;26970;49.900;10.774;2024-02-26T01:25:19;2.90;99.90
39503;DHT22;26970;49.900;10.774;2024-02-26T01:27:44;2.90;99.90
39503;DHT22;26970;49.900;10.774;2024-02-26T01:30:10;2.90;99.90
39503;DHT22;26970;49.900;10.774;2024-02-26T01:32:36;2.90;99.90
39503;DHT22;26970;49.900;10.774;2024-02-26T01:35:02;2.90;99.90
39503;DHT22;26970;49.900;10.774;2024-02-26T01:37:29;2.80;99.90
39503;DHT22;26970;49.900;10.774;2024-02-26T01:39:57;2.70;99.90
39503;DHT22;26970;49.900;10.774;2024-02-26T01:42:23;2.70;99.90
39503;DHT22;26970;49.900;10.774;2024-02-26T01:44:48;2.70;99.90
39503;DHT22;26970;49.900;10.774;2024-02-26T01:47:14;2.60;99.90
39503;DHT22;26970;49.900;10.774;2024-02-26T01:49:40;2.60;99.90
39503;DHT22;26970;49.900;10.774;2024-02-26T01:52:08;2.60;99.90
39503;DHT22;26970;49.900;10.774;2024-02-26T01:54:36;2.60;99.90
39503;DHT22;26970;49.900;10.774;2024-02-26T01:57:03;2.60;99.90
39503;DHT22;26970;49.900;10.774;2024-02-26T01:59:29;2.60;99.90
39503;DHT22;26970;49.900;10.774;2024-02-26T02:01:57;2.60;99.90
39503;DHT22;26970;49.900;10.774;2024-02-26T02:04:24;2.60;99.90
39503;DHT22;26970;49.900;10.774;2024-02-26T02:06:50;2.60;99.90
39503;DHT22;26970;49.900;10.774;2024-02-26T02:09:18;2.70;99.90
39503;DHT22;26970;49.900;10.774;2024-02-26T02:11:43;2.70;99.90
39503;DHT22;26970;49.900;10.774;2024-02-26T02:14:10;2.80;99.90
39503;DHT22;26970;49.900;10.774;2024-02-26T02:16:35;2.80;99.90
39503;DHT22;26970;49.900;10.774;2024-02-26T02:19:01;2.70;99.90
39503;DHT22;26970;49.900;10.774;2024-02-26T02:21:26;2.80;99.90
39503;DHT22;26970;49.900;10.774;2024-02-26T02:23:52;2.80;99.90
39503;DHT22;26970;49.900;10.774;2024-02-26T02:26:18;2.60;99.90
39503;DHT22;26970;49.900;10.774;2024-02-26T02:28:45;2.60;99.90
39503;DHT22;26970;49.900;10.774;2024-02-26T02:31:11;2.60;99.90
39503;DHT22;26970;49.900;10.774;2024-02-26T02:33:37;2.70;99.90
39503;DHT22;26970;49.900;10.774;2024-02-26T02:36:03;2.70;99.90
39503;DHT22;26970;49.900;10.774;2024-02-26T02:38:29;2.70;99.90
39503;DHT22;26970;49.900;10.774;2024-02-26T02:40:55;2.70;99.90
39503;DHT22;26970;49.900;10.774;2024-02-26T02:43:21;2.70;99.90
39503;DHT22;26970;49.900;10.774;2024-02-26T02:45:47;2.80;99.90
39503;DHT22;26970;49.900;10.774;2024-02-26T02:48:12;2.80;99.90
39503;DHT22;26970;49.900;10.774;2024-02-26T02:50:38;2.80;99.90
39503;DHT22;26970;49.900;10.774;2024-02-26T02:53:04;2.90;99.90
39503;DHT22;26970;49.900;10.774;2024-02-26T02:55:30;3.00;99.90
39503;DHT22;26970;49.900;10.774;2024-02-26T02:57:55;3.00;99.90
39503;DHT22;26970;49.900;10.774;2024-02-26T03:00:21;3.10;99.90
39503;DHT22;26970;49.900;10.774;2024-02-26T03:02:48;3.10;99.90
39503;DHT22;26970;49.900;10.774;2024-02-26T03:05:14;3.10;99.90
39503;DHT22;26970;49.900;10.774;2024-02-26T03:07:40;3.10;99.90
39503;DHT22;26970;49.900;10.774;2024-02-26T03:10:05;3.10;99.90
39503;DHT22;26970;49.900;10.774;2024-02-26T03:12:33;3.10;99.90
39503;DHT22;26970;49.900;10.774;2024-02-26T03:14:59;3.10;99.90
39503;DHT22;26970;49.900;10.774;2024-02-26T03:17:30;3.10;99.90
39503;DHT22;26970;49.900;10.774;2024-02-26T03:19:56;3.10;99.90
39503;DHT22;26970;49.900;10.774;2024-02-26T03:22:22;3.10;99.90
39503;DHT22;26970;49.900;10.774;2024-02-26T03:24:48;3.10;99.90
39503;DHT22;26970;49.900;10.774;2024-02-26T03:27:16;3.10;99.90
39503;DHT22;26970;49.900;10.774;2024-02-26T03:29:41;3.10;99.90
39503;DHT22;26970;49.900;10.774;2024-02-26T03:32:07;3.10;99.90
39503;DHT22;26970;49.900;10.774;2024-02-26T03:34:33;3.10;99.90
39503;DHT22;26970;49.900;10.774;2024-02-26T03:37:04;3.10;99.90
39503;DHT22;26970;49.900;10.774;2024-02-26T03:39:30;3.00;99.90
39503;DHT22;26970;49.900;10.774;2024-02-26T03:41:56;3.00;99.90
39503;DHT22;26970;49.900;10.774;2024-02-26T03:44:21;2.90;99.90
39503;DHT22;26970;49.900;10.774;2024-02-26T03:46:47;2.90;99.90
39503;DHT22;26970;49.900;10.774;2024-02-26T03:49:12;2.90;99.90
39503;DHT22;26970;49.900;10.774;2024-02-26T03:51:38;2.80;99.90
39503;DHT22;26970;49.900;10.774;2024-02-26T03:54:04;2.80;99.90
39503;DHT22;26970;49.900;10.774;2024-02-26T03:56:30;2.80;99.90
39503;DHT22;26970;49.900;10.774;2024-02-26T03:58:55;2.80;99.90
39503;DHT22;26970;49.900;10.774;2024-02-26T04:01:21;2.70;99.90
39503;DHT22;26970;49.900;10.774;2024-02-26T04:03:46;2.80;99.90
39503;DHT22;26970;49.900;10.774;2024-02-26T04:06:12;2.80;99.90
39503;DHT22;26970;49.900;10.774;2024-02-26T04:08:43;2.90;99.90
39503;DHT22;26970;49.900;10.774;2024-02-26T04:11:09;3.00;99.90
39503;DHT22;26970;49.900;10.774;2024-02-26T04:13:35;3.00;99.90
39503;DHT22;26970;49.900;10.774;2024-02-26T04:16:01;3.00;99.90
39503;DHT22;26970;49.900;10.774;2024-02-26T04:18:28;3.00;99.90
39503;DHT22;26970;49.900;10.774;2024-02-26T04:20:53;3.10;99.90
39503;DHT22;26970;49.900;10.774;2024-02-26T04:23:19;3.10;99.90
39503;DHT22;26970;49.900;10.774;2024-02-26T04:25:45;3.10;99.90
39503;DHT22;26970;49.900;10.774;2024-02-26T04:28:10;3.10;99.90
39503;DHT22;26970;49.900;10.774;2024-02-26T04:30:36;3.10;99.90
39503;DHT22;26970;49.900;10.774;2024-02-26T04:33:02;3.10;99.90
39503;DHT22;26970;49.900;10.774;2024-02-26T04:35:28;3.10;99.90
39503;DHT22;26970;49.900;10.774;2024-02-26T04:37:53;3.10;99.90
39503;DHT22;26970;49.900;10.774;2024-02-26T04:40:19;3.10;99.90
39503;DHT22;26970;49.900;10.774;2024-02-26T04:42:44;3.10;99.90
39503;DHT22;26970;49.900;10.774;2024-02-26T04:45:10;3.00;99.90
39503;DHT22;26970;49.900;10.774;2024-02-26T04:47:35;3.10;99.90
39503;DHT22;26970;49.900;10.774;2024-02-26T04:50:01;3.10;99.90
39503;DHT22;26970;49.900;10.774;2024-02-26T04:52:27;3.10;99.90
39503;DHT22;26970;49.900;10.774;2024-02-26T04:54:52;3.10;99.90
39503;DHT22;26970;49.900;10.774;2024-02-26T04:57:18;3.10;99.90
39503;DHT22;26970;49.900;10.774;2024-02-26T04:59:44;3.10;99.90
39503;DHT22;26970;49.900;10.774;2024-02-26T05:02:11;3.00;99.90
39503;DHT22;26970;49.900;10.774;2024-02-26T05:04:37;3.00;99.90
39503;DHT22;26970;49.900;10.774;2024-02-26T05:07:02;3.00;99.90
39503;DHT22;26970;49.900;10.774;2024-02-26T05:09:29;3.10;99.90
39503;DHT22;26970;49.900;10.774;2024-02-26T05:11:54;3.00;99.90
39503;DHT22;26970;49.900;10.774;2024-02-26T05:14:20;3.10;99.90
39503;DHT22;26970;49.900;10.774;2024-02-26T05:16:45;3.10;99.90
39503;DHT22;26970;49.900;10.774;2024-02-26T05:19:11;3.10;99.90
39503;DHT22;26970;49.900;10.774;2024-02-26T05:21:37;3.10;99.90
39503;DHT22;26970;49.900;10.774;2024-02-26T05:24:03;3.10;99.90
39503;DHT22;26970;49.900;10.774;2024-02-26T05:26:28;3.10;99.90
39503;DHT22;26970;49.900;10.774;2024-02-26T05:28:54;3.10;99.90
39503;DHT22;26970;49.900;10.774;2024-02-26T05:31:25;3.00;99.90
39503;DHT22;26970;49.900;10.774;2024-02-26T05:33:50;3.10;99.90
39503;DHT22;26970;49.900;10.774;2024-02-26T05:36:22;3.10;99.90
39503;DHT22;26970;49.900;10.774;2024-02-26T05:38:48;3.10;99.90
39503;DHT22;26970;49.900;10.774;2024-02-26T05:41:15;3.00;99.90
39503;DHT22;26970;49.900;10.774;2024-02-26T05:43:41;3.10;99.90
39503;DHT22;26970;49.900;10.774;2024-02-26T05:46:07;3.10;99.90
39503;DHT22;26970;49.900;10.774;2024-02-26T05:48:33;3.10;99.90
39503;DHT22;26970;49.900;10.774;2024-02-26T05:50:59;3.20;99.90
39503;DHT22;26970;49.900;10.774;2024-02-26T05:53:24;3.20;99.90
39503;DHT22;26970;49.900;10.774;2024-02-26T05:55:50;3.20;99.90
39503;DHT22;26970;49.900;10.774;2024-02-26T05:58:16;3.30;99.90
39503;DHT22;26970;49.900;10.774;2024-02-26T06:00:41;3.30;99.90
39503;DHT22;26970;49.900;10.774;2024-02-26T06:03:07;3.40;99.90
39503;DHT22;26970;49.900;10.774;2024-02-26T06:05:32;3.40;99.90
39503;DHT22;26970;49.900;10.774;2024-02-26T06:07:58;3.50;99.90
39503;DHT22;26970;49.900;10.774;2024-02-26T06:10:23;3.50;99.90
39503;DHT22;26970;49.900;10.774;2024-02-26T06:12:49;3.60;99.90
39503;DHT22;26970;49.900;10.774;2024-02-26T06:15:15;3.60;99.90
39503;DHT22;26970;49.900;10.774;2024-02-26T06:17:40;3.60;99.90
39503;DHT22;26970;49.900;10.774;2024-02-26T06:20:06;3.60;99.90
39503;DHT22;26970;49.900;10.774;2024-02-26T06:22:37;3.60;99.90
39503;DHT22;26970;49.900;10.774;2024-02-26T06:25:02;3.70;99.90
39503;DHT22;26970;49.900;10.774;2024-02-26T06:27:28;3.70;99.90
39503;DHT22;26970;49.900;10.774;2024-02-26T06:29:53;3.70;99.90
39503;DHT22;26970;49.900;10.774;2024-02-26T06:32:19;3.80;99.90
39503;DHT22;26970;49.900;10.774;2024-02-26T06:34:44;3.80;99.90
39503;DHT22;26970;49.900;10.774;2024-02-26T06:37:10;3.80;99.90
39503;DHT22;26970;49.900;10.774;2024-02-26T06:39:35;3.90;99.90
39503;DHT22;26970;49.900;10.774;2024-02-26T06:42:01;3.90;99.90
39503;DHT22;26970;49.900;10.774;2024-02-26T06:44:30;3.80;99.90
39503;DHT22;26970;49.900;10.774;2024-02-26T06:46:58;3.60;99.90
39503;DHT22;26970;49.900;10.774;2024-02-26T06:49:25;3.60;99.90
39503;DHT22;26970;49.900;10.774;2024-02-26T06:51:50;3.70;99.90
39503;DHT22;26970;49.900;10.774;2024-02-26T06:54:16;3.80;99.90
39503;DHT22;26970;49.900;10.774;2024-02-26T06:56:41;3.80;99.90
39503;DHT22;26970;49.900;10.774;2024-02-26T06:59:07;3.80;99.90
39503;DHT22;26970;49.900;10.774;2024-02-26T07:01:32;3.80;99.90
39503;DHT22;26970;49.900;10.774;2024-02-26T07:03:58;3.70;99.90
39503;DHT22;26970;49.900;10.774;2024-02-26T07:06:23;3.60;99.90
39503;DHT22;26970;49.900;10.774;2024-02-26T07:08:49;3.60;99.90
39503;DHT22;26970;49.900;10.774;2024-02-26T07:11:14;3.60;99.90
39503;DHT22;26970;49.900;10.774;2024-02-26T07:13:40;3.60;99.90
39503;DHT22;26970;49.900;10.774;2024-02-26T07:16:06;3.60;99.90
39503;DHT22;26970;49.900;10.774;2024-02-26T07:18:31;3.60;99.90
39503;DHT22;26970;49.900;10.774;2024-02-26T07:20:57;3.70;99.90
39503;DHT22;26970;49.900;10.774;2024-02-26T07:23:22;3.70;99.90
39503;DHT22;26970;49.900;10.774;2024-02-26T07:25:48;3.80;99.90
39503;DHT22;26970;49.900;10.774;2024-02-26T07:28:15;3.90;99.90
39503;DHT22;26970;49.900;10.774;2024-02-26T07:30:40;3.90;99.90
39503;DHT22;26970;49.900;10.774;2024-02-26T07:33:06;4.00;99.90
39503;DHT22;26970;49.900;10.774;2024-02-26T07:35:32;4.00;99.90
39503;DHT22;26970;49.900;10.774;2024-02-26T07:37:59;4.00;99.90
39503;DHT22;26970;49.900;10.774;2024-02-26T07:40:24;4.10;99.90
39503;DHT22;26970;49.900;10.774;2024-02-26T07:42:50;4.20;99.90
39503;DHT22;26970;49.900;10.774;2024-02-26T07:45:15;4.20;99.90
39503;DHT22;26970;49.900;10.774;2024-02-26T07:47:43;4.30;99.90
39503;DHT22;26970;49.900;10.774;2024-02-26T07:50:08;4.40;99.90
39503;DHT22;26970;49.900;10.774;2024-02-26T07:52:34;4.50;99.90
39503;DHT22;26970;49.900;10.774;2024-02-26T07:55:00;4.50;99.90
39503;DHT22;26970;49.900;10.774;2024-02-26T07:57:25;4.50;99.90
39503;DHT22;26970;49.900;10.774;2024-02-26T07:59:51;4.60;99.90
39503;DHT22;26970;49.900;10.774;2024-02-26T08:02:16;4.70;99.90
39503;DHT22;26970;49.900;10.774;2024-02-26T08:04:42;4.90;99.90
39503;DHT22;26970;49.900;10.774;2024-02-26T08:07:07;4.90;99.90
39503;DHT22;26970;49.900;10.774;2024-02-26T08:09:33;5.00;99.90
39503;DHT22;26970;49.900;10.774;2024-02-26T08:11:59;5.10;99.90
39503;DHT22;26970;49.900;10.774;2024-02-26T08:14:24;5.10;99.90
39503;DHT22;26970;49.900;10.774;2024-02-26T08:16:50;5.10;99.90
39503;DHT22;26970;49.900;10.774;2024-02-26T08:19:15;5.10;99.90
39503;DHT22;26970;49.900;10.774;2024-02-26T08:21:43;5.10;99.90
39503;DHT22;26970;49.900;10.774;2024-02-26T08:24:08;5.10;99.90
39503;DHT22;26970;49.900;10.774;2024-02-26T08:26:34;5.00;99.90
39503;DHT22;26970;49.900;10.774;2024-02-26T08:28:59;5.10;99.90
39503;DHT22;26970;49.900;10.774;2024-02-26T08:31:25;5.00;99.90
39503;DHT22;26970;49.900;10.774;2024-02-26T08:33:51;5.10;99.90
39503;DHT22;26970;49.900;10.774;2024-02-26T08:36:16;5.10;99.90
39503;DHT22;26970;49.900;10.774;2024-02-26T08:38:42;5.10;99.90
39503;DHT22;26970;49.900;10.774;2024-02-26T08:41:07;5.20;99.90
39503;DHT22;26970;49.900;10.774;2024-02-26T08:43:33;5.20;99.90
39503;DHT22;26970;49.900;10.774;2024-02-26T08:45:58;5.20;99.90
39503;DHT22;26970;49.900;10.774;2024-02-26T08:48:24;5.20;99.90
39503;DHT22;26970;49.900;10.774;2024-02-26T08:50:50;5.30;99.90
39503;DHT22;26970;49.900;10.774;2024-02-26T08:53:15;5.40;99.90
39503;DHT22;26970;49.900;10.774;2024-02-26T08:55:40;5.50;99.90
39503;DHT22;26970;49.900;10.774;2024-02-26T08:58:06;5.60;99.90
39503;DHT22;26970;49.900;10.774;2024-02-26T09:00:31;5.60;99.90
39503;DHT22;26970;49.900;10.774;2024-02-26T09:02:57;5.70;99.90
39503;DHT22;26970;49.900;10.774;2024-02-26T09:05:23;5.80;99.90
39503;DHT22;26970;49.900;10.774;2024-02-26T09:07:48;5.90;99.90
39503;DHT22;26970;49.900;10.774;2024-02-26T09:10:14;6.10;99.90
39503;DHT22;26970;49.900;10.774;2024-02-26T09:12:39;6.10;99.90
39503;DHT22;26970;49.900;10.774;2024-02-26T09:15:06;6.10;99.90
39503;DHT22;26970;49.900;10.774;2024-02-26T09:17:32;6.20;99.90
39503;DHT22;26970;49.900;10.774;2024-02-26T09:19:58;6.30;99.90
39503;DHT22;26970;49.900;10.774;2024-02-26T09:22:23;6.30;99.90
39503;DHT22;26970;49.900;10.774;2024-02-26T09:24:49;6.50;99.90
39503;DHT22;26970;49.900;10.774;2024-02-26T09:27:16;6.60;99.90
39503;DHT22;26970;49.900;10.774;2024-02-26T09:29:43;6.80;99.90
39503;DHT22;26970;49.900;10.774;2024-02-26T09:32:09;6.90;99.90
39503;DHT22;26970;49.900;10.774;2024-02-26T09:34:34;7.00;99.90
39503;DHT22;26970;49.900;10.774;2024-02-26T09:37:00;7.30;99.90
39503;DHT22;26970;49.900;10.774;2024-02-26T09:39:26;7.40;99.90
39503;DHT22;26970;49.900;10.774;2024-02-26T09:41:53;7.50;99.90
39503;DHT22;26970;49.900;10.774;2024-02-26T09:44:19;7.50;99.90
39503;DHT22;26970;49.900;10.774;2024-02-26T09:46:48;7.40;99.90
39503;DHT22;26970;49.900;10.774;2024-02-26T09:49:17;7.50;99.90
39503;DHT22;26970;49.900;10.774;2024-02-26T09:51:43;7.40;99.90
39503;DHT22;26970;49.900;10.774;2024-02-26T09:54:12;7.30;99.90
39503;DHT22;26970;49.900;10.774;2024-02-26T09:56:39;7.50;99.90
39503;DHT22;26970;49.900;10.774;2024-02-26T09:59:10;7.60;99.90
39503;DHT22;26970;49.900;10.774;2024-02-26T10:01:38;7.80;99.90
39503;DHT22;26970;49.900;10.774;2024-02-26T10:04:06;7.80;99.90
39503;DHT22;26970;49.900;10.774;2024-02-26T10:06:34;7.70;99.90
39503;DHT22;26970;49.900;10.774;2024-02-26T10:09:01;7.80;99.90
39503;DHT22;26970;49.900;10.774;2024-02-26T10:11:32;7.90;99.90
39503;DHT22;26970;49.900;10.774;2024-02-26T10:13:57;7.90;99.90
39503;DHT22;26970;49.900;10.774;2024-02-26T10:16:24;8.00;99.90
39503;DHT22;26970;49.900;10.774;2024-02-26T10:18:50;8.00;99.90
39503;DHT22;26970;49.900;10.774;2024-02-26T10:21:17;8.00;99.90
39503;DHT22;26970;49.900;10.774;2024-02-26T10:23:46;8.00;99.90
39503;DHT22;26970;49.900;10.774;2024-02-26T10:26:13;8.10;99.90
39503;DHT22;26970;49.900;10.774;2024-02-26T10:28:43;8.20;99.90
39503;DHT22;26970;49.900;10.774;2024-02-26T10:31:09;8.30;99.90
39503;DHT22;26970;49.900;10.774;2024-02-26T10:33:36;8.40;99.90
39503;DHT22;26970;49.900;10.774;2024-02-26T10:36:03;8.40;99.90
39503;DHT22;26970;49.900;10.774;2024-02-26T10:38:30;8.30;99.90
39503;DHT22;26970;49.900;10.774;2024-02-26T10:40:56;8.30;99.90
39503;DHT22;26970;49.900;10.774;2024-02-26T10:43:21;8.20;99.90
39503;DHT22;26970;49.900;10.774;2024-02-26T10:45:47;8.20;99.90
39503;DHT22;26970;49.900;10.774;2024-02-26T10:48:14;8.10;99.90
39503;DHT22;26970;49.900;10.774;2024-02-26T10:50:40;7.80;99.90
39503;DHT22;26970;49.900;10.774;2024-02-26T10:53:28;7.80;99.90
39503;DHT22;26970;49.900;10.774;2024-02-26T10:56:00;7.80;99.90
39503;DHT22;26970;49.900;10.774;2024-02-26T10:58:27;7.80;99.90
39503;DHT22;26970;49.900;10.774;2024-02-26T11:00:55;7.80;99.90
39503;DHT22;26970;49.900;10.774;2024-02-26T11:03:22;7.90;99.90
39503;DHT22;26970;49.900;10.774;2024-02-26T11:05:49;7.90;99.90
39503;DHT22;26970;49.900;10.774;2024-02-26T11:08:18;8.00;99.90
39503;DHT22;26970;49.900;10.774;2024-02-26T11:10:43;8.20;99.90
39503;DHT22;26970;49.900;10.774;2024-02-26T11:13:12;8.30;99.90
39503;DHT22;26970;49.900;10.774;2024-02-26T11:15:39;8.30;99.90
39503;DHT22;26970;49.900;10.774;2024-02-26T11:18:06;8.40;99.90
39503;DHT22;26970;49.900;10.774;2024-02-26T11:20:32;8.40;99.90
39503;DHT22;26970;49.900;10.774;2024-02-26T11:22:58;8.60;99.90
39503;DHT22;26970;49.900;10.774;2024-02-26T11:25:24;8.80;99.90
39503;DHT22;26970;49.900;10.774;2024-02-26T11:27:56;8.90;99.90
39503;DHT22;26970;49.900;10.774;2024-02-26T11:30:25;8.90;99.90
39503;DHT22;26970;49.900;10.774;2024-02-26T11:32:52;8.90;99.90
39503;DHT22;26970;49.900;10.774;2024-02-26T11:35:18;8.90;99.90
39503;DHT22;26970;49.900;10.774;2024-02-26T11:37:54;8.80;99.90
39503;DHT22;26970;49.900;10.774;2024-02-26T11:40:23;8.80;99.90
39503;DHT22;26970;49.900;10.774;2024-02-26T11:42:48;8.90;99.90
39503;DHT22;26970;49.900;10.774;2024-02-26T11:48:03;9.00;99.90
39503;DHT22;26970;49.900;10.774;2024-02-26T11:50:36;9.10;99.90
39503;DHT22;26970;49.900;10.774;2024-02-26T11:55:46;9.10;99.90
39503;DHT22;26970;49.900;10.774;2024-02-26T11:58:11;9.20;99.90
39503;DHT22;26970;49.900;10.774;2024-02-26T12:00:40;9.30;99.90
39503;DHT22;26970;49.900;10.774;2024-02-26T12:03:06;9.40;99.90
39503;DHT22;26970;49.900;10.774;2024-02-26T12:05:34;9.40;99.90
39503;DHT22;26970;49.900;10.774;2024-02-26T12:08:03;9.50;99.90
39503;DHT22;26970;49.900;10.774;2024-02-26T12:10:33;9.60;99.90
39503;DHT22;26970;49.900;10.774;2024-02-26T12:13:09;9.60;99.90
39503;DHT22;26970;49.900;10.774;2024-02-26T12:15:41;9.60;99.90
39503;DHT22;26970;49.900;10.774;2024-02-26T12:18:09;9.50;99.90
39503;DHT22;26970;49.900;10.774;2024-02-26T12:20:36;9.60;99.90
39503;DHT22;26970;49.900;10.774;2024-02-26T12:23:03;9.70;99.90
39503;DHT22;26970;49.900;10.774;2024-02-26T12:25:32;9.80;99.90
39503;DHT22;26970;49.900;10.774;2024-02-26T12:27:59;10.00;99.90
39503;DHT22;26970;49.900;10.774;2024-02-26T12:30:25;10.00;99.90
39503;DHT22;26970;49.900;10.774;2024-02-26T12:32:55;10.00;99.90
39503;DHT22;26970;49.900;10.774;2024-02-26T12:35:23;10.20;99.90
39503;DHT22;26970;49.900;10.774;2024-02-26T12:37:49;10.20;99.90
39503;DHT22;26970;49.900;10.774;2024-02-26T12:40:17;10.20;99.90
39503;DHT22;26970;49.900;10.774;2024-02-26T12:42:42;10.20;99.90
39503;DHT22;26970;49.900;10.774;2024-02-26T12:45:12;10.20;99.90
39503;DHT22;26970;49.900;10.774;2024-02-26T12:47:41;10.30;99.90
39503;DHT22;26970;49.900;10.774;2024-02-26T12:50:08;10.30;99.90
39503;DHT22;26970;49.900;10.774;2024-02-26T12:52:35;10.30;99.90
39503;DHT22;26970;49.900;10.774;2024-02-26T12:55:02;10.30;99.90
39503;DHT22;26970;49.900;10.774;2024-02-26T12:57:32;10.20;99.90
39503;DHT22;26970;49.900;10.774;2024-02-26T12:59:59;10.20;99.90
39503;DHT22;26970;49.900;10.774;2024-02-26T13:02:26;10.20;99.90
39503;DHT22;26970;49.900;10.774;2024-02-26T13:04:53;10.10;99.90
39503;DHT22;26970;49.900;10.774;2024-02-26T13:07:20;10.10;99.90
39503;DHT22;26970;49.900;10.774;2024-02-26T13:09:45;10.10;99.90
39503;DHT22;26970;49.900;10.774;2024-02-26T13:12:12;10.20;99.90
39503;DHT22;26970;49.900;10.774;2024-02-26T13:14:38;10.10;99.90
39503;DHT22;26970;49.900;10.774;2024-02-26T13:17:04;10.20;99.90
39503;DHT22;26970;49.900;10.774;2024-02-26T13:19:30;10.20;99.90
39503;DHT22;26970;49.900;10.774;2024-02-26T13:21:55;10.20;99.90
39503;DHT22;26970;49.900;10.774;2024-02-26T13:24:22;10.20;99.90
39503;DHT22;26970;49.900;10.774;2024-02-26T13:26:54;10.20;99.90
39503;DHT22;26970;49.900;10.774;2024-02-26T13:29:19;10.20;99.90
39503;DHT22;26970;49.900;10.774;2024-02-26T13:31:45;10.20;99.90
39503;DHT22;26970;49.900;10.774;2024-02-26T13:34:23;10.20;99.90
39503;DHT22;26970;49.900;10.774;2024-02-26T13:36:49;10.20;99.90
39503;DHT22;26970;49.900;10.774;2024-02-26T13:39:22;10.20;99.90
39503;DHT22;26970;49.900;10.774;2024-02-26T13:41:48;10.20;99.90
39503;DHT22;26970;49.900;10.774;2024-02-26T13:44:13;10.20;99.90
39503;DHT22;26970;49.900;10.774;2024-02-26T13:46:39;10.20;99.90
39503;DHT22;26970;49.900;10.774;2024-02-26T13:49:08;10.30;99.90
39503;DHT22;26970;49.900;10.774;2024-02-26T13:51:34;10.30;99.90
39503;DHT22;26970;49.900;10.774;2024-02-26T13:54:01;10.30;99.90
39503;DHT22;26970;49.900;10.774;2024-02-26T13:56:26;10.30;99.90
39503;DHT22;26970;49.900;10.774;2024-02-26T13:58:52;10.30;99.90
39503;DHT22;26970;49.900;10.774;2024-02-26T14:01:18;10.40;99.90
39503;DHT22;26970;49.900;10.774;2024-02-26T14:03:43;10.40;99.90
39503;DHT22;26970;49.900;10.774;2024-02-26T14:06:09;10.50;99.90
39503;DHT22;26970;49.900;10.774;2024-02-26T14:08:34;10.50;99.90
39503;DHT22;26970;49.900;10.774;2024-02-26T14:11:00;10.60;99.90
39503;DHT22;26970;49.900;10.774;2024-02-26T14:13:26;10.70;99.90
39503;DHT22;26970;49.900;10.774;2024-02-26T14:15:51;10.70;99.90
39503;DHT22;26970;49.900;10.774;2024-02-26T14:18:17;10.70;99.90
39503;DHT22;26970;49.900;10.774;2024-02-26T14:20:42;10.70;99.90
39503;DHT22;26970;49.900;10.774;2024-02-26T14:23:09;10.70;99.90
39503;DHT22;26970;49.900;10.774;2024-02-26T14:25:35;10.70;99.90
39503;DHT22;26970;49.900;10.774;2024-02-26T14:28:02;10.60;99.90
39503;DHT22;26970;49.900;10.774;2024-02-26T14:30:27;10.70;99.90
39503;DHT22;26970;49.900;10.774;2024-02-26T14:32:53;10.60;99.90
39503;DHT22;26970;49.900;10.774;2024-02-26T14:35:18;10.60;99.90
39503;DHT22;26970;49.900;10.774;2024-02-26T14:37:44;10.60;99.90
39503;DHT22;26970;49.900;10.774;2024-02-26T14:40:11;10.50;99.90
39503;DHT22;26970;49.900;10.774;2024-02-26T14:42:37;10.40;99.90
39503;DHT22;26970;49.900;10.774;2024-02-26T14:45:03;10.40;99.90
39503;DHT22;26970;49.900;10.774;2024-02-26T14:47:32;10.40;99.90
39503;DHT22;26970;49.900;10.774;2024-02-26T14:49:58;10.40;99.90
39503;DHT22;26970;49.900;10.774;2024-02-26T14:52:23;10.40;99.90
39503;DHT22;26970;49.900;10.774;2024-02-26T14:54:49;10.40;99.90
39503;DHT22;26970;49.900;10.774;2024-02-26T14:57:16;10.50;99.90
39503;DHT22;26970;49.900;10.774;2024-02-26T14:59:42;10.40;99.90
39503;DHT22;26970;49.900;10.774;2024-02-26T15:02:09;10.50;99.90
39503;DHT22;26970;49.900;10.774;2024-02-26T15:04:35;10.40;99.90
39503;DHT22;26970;49.900;10.774;2024-02-26T15:07:01;10.40;99.90
39503;DHT22;26970;49.900;10.774;2024-02-26T15:09:26;10.40;99.90
39503;DHT22;26970;49.900;10.774;2024-02-26T15:11:52;10.40;99.90
39503;DHT22;26970;49.900;10.774;2024-02-26T15:14:17;10.40;99.90
39503;DHT22;26970;49.900;10.774;2024-02-26T15:16:43;10.40;99.90
39503;DHT22;26970;49.900;10.774;2024-02-26T15:19:09;10.40;99.90
39503;DHT22;26970;49.900;10.774;2024-02-26T15:21:41;10.30;99.90
39503;DHT22;26970;49.900;10.774;2024-02-26T15:24:07;10.30;99.90
39503;DHT22;26970;49.900;10.774;2024-02-26T15:26:32;10.30;99.90